Latest Weather Observations for Thredbo Top Station

IDN60901

Issued at 2:01 pm EDT Saturday 21 October 2017 (issued every 10 minutes, with the page automatically refreshed every 10 minutes)

About weather observations | Map of Canberra area stations | Latest observations for Canberra area | Other Formats
Station Details ID: 071032 Name: THREDBO AWS Lat: -36.49 Lon: 148.29 Height: 1957.0 m
Data from the previous 72 hours. | See also: Recent months at Thredbo Top Station
Date/Time
EDT
Temp
°C
App
Temp
°C
Dew
Point
°C
Rel
Hum
%
Delta-T
°C
Wind Press
QNH
hPa
Press
MSL
hPa
Rain since
9am
mm
Dir  Spd
km/h
Gust
km/h
Spd
kts
Gust
kts
21/02:00pm 7.9 2.3 -3.3 45 4.6 W 17 26 9 14 1021.6 1020.0 0.0
21/01:30pm 8.1 2.9 -2.8 46 4.6 WSW 15 22 8 12 1021.8 1020.3 0.0
21/01:00pm 8.5 3.4 -5.3 37 5.5 SSW 13 20 7 11 1021.8 1020.3 0.0
21/12:30pm 8.0 2.6 -4.1 42 4.9 SSW 15 24 8 13 1022.2 1020.7 0.0
21/12:00pm 8.3 2.4 -5.5 37 5.4 SSW 17 26 9 14 1022.4 1020.9 0.0
21/11:30am 7.8 2.4 -4.9 40 5.0 SSW 15 19 8 10 1022.7 1021.2 0.0
21/11:00am 7.6 2.8 -6.1 37 5.3 SW 11 20 6 11 1022.9 1021.4 0.0
21/10:30am 7.5 2.6 -3.4 46 4.5 SSW 13 20 7 11 1023.0 1021.6 0.0
21/10:00am 7.5 2.6 -3.6 45 4.5 SSW 13 20 7 11 1023.0 1021.6 0.0
21/09:30am 6.6 2.0 -4.2 46 4.3 SSW 11 19 6 10 1023.0 1021.6 0.0
21/09:00am 6.1 1.4 -5.2 44 4.4 SSW 11 17 6 9 1023.1 1021.7 0.0
21/08:30am 5.7 0.7 -4.7 47 4.1 SSW 13 19 7 10 1023.0 1021.6 0.0
21/08:00am 5.3 0.9 -6.2 43 4.3 SSW 9 15 5 8 1023.0 1021.6 0.0
21/07:30am 4.4 -0.1 -6.5 45 4.0 WSW 9 13 5 7 1023.0 1021.6 0.0
21/07:00am 3.4 -1.1 -6.5 48 3.8 SW 9 13 5 7 1023.0 1021.6 0.0
21/06:30am 3.2 -2.9 -7.3 46 3.9 SW 17 22 9 12 1023.0 1021.6 0.0
21/06:00am 2.4 -3.7 -7.2 49 3.5 SSW 17 22 9 12 1022.9 1021.4 0.0
21/05:30am 2.4 -3.9 -10.4 38 4.3 SW 17 22 9 12 1022.9 1021.4 0.0
21/05:00am 1.8 -4.9 -11.0 38 4.2 SSW 19 22 10 12 1022.8 1021.3 0.0
21/04:30am 1.2 -3.8 -13.6 32 4.4 SSW 9 13 5 7 1023.0 1021.6 0.0
21/04:00am 1.5 -3.2 -15.4 27 4.8 SW 7 15 4 8 1023.3 1021.8 0.0
21/03:30am 1.4 -3.7 -15.5 27 4.8 SSW 9 15 5 8 1023.7 1022.3 0.0
21/03:00am 2.0 -4.6 -15.5 26 5.1 S 17 22 9 12 1023.9 1022.4 0.0
21/02:30am 2.3 -3.1 -14.7 27 5.1 SSW 11 22 6 12 1024.2 1022.8 0.0
21/02:00am 2.4 -2.4 -16.1 24 5.3 SSW 7 17 4 9 1024.3 1022.9 0.0
21/01:30am 1.6 -2.0 -11.8 36 4.3 S 2 13 1 7 1024.6 1023.2 0.0
21/01:00am 1.9 -3.7 -11.6 36 4.3 SW 13 22 7 12 1025.0 1023.6 0.0
21/12:30am 0.6 -3.9 -11.7 39 3.8 SSW 7 20 4 11 1025.0 1023.6 0.0
21/12:00am -1.7 -6.2 -11.5 47 2.9 NW 7 15 4 8 1025.2 1023.8 0.0
 
Date/Time
EDT
Temp
°C
App
Temp
°C
Dew
Point
°C
Rel
Hum
%
Delta-T
°C
Wind Press
QNH
hPa
Press
MSL
hPa
Rain since
9am
mm
Dir  Spd
km/h
Gust
km/h
Spd
kts
Gust
kts
20/11:30pm -1.5 -5.0 -11.1 48 2.9 NNW 2 6 1 3 1025.3 1024.0 0.0
20/11:00pm -2.8 -7.1 -9.0 62 1.8 NW 7 11 4 6 1025.3 1024.0 0.0
20/10:30pm -1.8 -5.8 -7.7 64 1.9 WNW 6 9 3 5 1025.4 1024.1 0.0
20/10:00pm -2.1 -5.7 -7.0 69 1.5 N 4 9 2 5 1025.6 1024.2 0.0
20/09:30pm -2.6 -5.9 -4.3 88 0.5 NNW 4 7 2 4 1025.7 1024.3 0.0
20/09:00pm -1.8 -5.0 -3.7 87 0.6 ENE 4 9 2 5 1025.7 1024.3 0.0
20/08:30pm -1.4 -5.0 -3.4 86 0.7 SE 6 9 3 5 1025.6 1024.2 0.0
20/08:00pm -0.7 -4.1 -2.4 88 0.6 E 6 11 3 6 1025.4 1024.1 0.0
20/07:30pm -0.3 -3.7 -1.9 89 0.6 SSE 6 15 3 8 1025.1 1023.7 0.0
20/07:00pm -0.1 -3.4 -1.4 91 0.5 SE 6 11 3 6 1024.7 1023.3 0.0
20/06:30pm 0.7 -3.0 -0.3 93 0.4 S 9 15 5 8 1024.5 1023.1 0.0
20/06:00pm 1.9 -1.3 0.9 93 0.4 SSE 7 11 4 6 1024.2 1022.8 0.0
20/05:30pm 3.6 0.3 2.4 92 0.5 S 9 15 5 8 1023.9 1022.4 0.0
20/05:00pm 5.7 2.1 3.2 84 1.2 SW 11 19 6 10 1023.7 1022.3 0.0
20/04:30pm 7.6 4.2 1.7 66 2.7 WSW 9 19 5 10 1023.6 1022.2 0.0
20/04:00pm 4.5 1.8 2.5 87 0.9 E 6 9 3 5 1023.5 1022.1 0.0
20/03:30pm 3.6 -0.5 2.3 91 0.6 SSW 13 19 7 10 1023.6 1022.2 0.0
20/03:00pm 6.0 3.6 4.2 88 0.9 SE 6 11 3 6 1023.6 1022.2 0.0
20/02:30pm 9.7 6.6 5.7 76 2.1 WNW 11 22 6 12 1023.7 1022.3 0.0
20/02:00pm 8.9 6.3 6.0 82 1.5 WSW 9 20 5 11 1023.9 1022.4 0.0
20/01:30pm 8.4 5.3 5.7 83 1.4 NW 11 24 6 13 1024.0 1022.6 0.0
20/01:00pm 6.6 3.3 4.3 85 1.1 W 11 28 6 15 1024.0 1022.6 0.0
20/12:30pm 9.2 4.5 5.9 80 1.7 NW 20 32 11 17 1024.0 1022.6 0.0
20/12:00pm 8.1 3.7 5.0 81 1.5 NW 17 32 9 17 1024.1 1022.7 0.0
20/11:30am 9.0 5.1 5.4 78 1.8 WNW 15 26 8 14 1024.5 1023.1 0.0
20/11:00am 8.5 3.5 4.7 77 1.9 WNW 20 32 11 17 1024.2 1022.8 0.0
20/10:30am 8.3 2.9 4.7 78 1.8 NW 22 32 12 17 1024.2 1022.8 0.0
20/10:00am 8.3 2.1 4.1 75 2.1 NW 26 35 14 19 1024.1 1022.7 0.0
20/09:30am 8.1 1.3 3.0 70 2.4 NW 28 41 15 22 1024.0 1022.6 0.0
20/09:00am 7.8 2.1 0.8 61 3.2 NW 20 33 11 18 1024.1 1022.7 34.2
20/08:30am 7.3 1.6 0.3 61 3.1 NW 20 28 11 15 1024.1 1022.7 34.2
20/08:00am 7.3 1.7 0.1 60 3.2 WNW 19 30 10 16 1024.0 1022.6 34.2
20/07:30am 6.9 1.0 -0.5 59 3.2 NW 20 30 11 16 1023.7 1022.3 34.2
20/07:00am 7.0 1.8 -0.2 60 3.2 WNW 17 28 9 15 1023.9 1022.4 34.0
20/06:30am 7.1 0.2 0.1 61 3.1 NW 26 39 14 21 1023.5 1022.1 34.0
20/06:00am 7.2 2.0 0.4 62 3.0 WNW 17 28 9 15 1023.4 1021.9 33.8
20/05:30am 7.1 1.9 -0.1 60 3.2 WNW 17 24 9 13 1023.4 1021.9 33.8
20/05:00am 7.3 1.8 0.5 62 3.0 NW 19 26 10 14 1023.3 1021.8 33.8
20/04:30am 7.4 2.3 0.6 62 3.1 WNW 17 24 9 13 1023.3 1021.8 33.6
20/04:00am 7.8 1.8 1.0 62 3.1 NW 22 32 12 17 1023.4 1021.9 33.6
20/03:30am 8.0 3.0 1.4 63 3.0 WNW 17 24 9 13 1023.5 1022.1 33.4
20/03:00am 8.1 0.7 1.7 64 3.0 NW 30 37 16 20 1023.3 1021.8 33.4
20/02:30am 8.2 1.2 2.2 66 2.8 NW 28 43 15 23 1023.4 1021.9 33.0
20/02:00am 8.1 0.4 2.4 67 2.7 NNW 32 43 17 23 1023.6 1022.2 33.0
20/01:30am 8.2 2.5 3.1 70 2.4 NW 22 32 12 17 1024.1 1022.7 32.8
20/01:00am 7.7 2.6 2.8 71 2.3 WNW 19 24 10 13 1025.0 1023.6 32.8
20/12:30am 8.0 2.6 2.3 67 2.7 W 20 30 11 16 1025.2 1023.8 32.6
20/12:00am 7.7 2.2 2.0 67 2.6 WNW 20 28 11 15 1025.6 1024.2 32.4
 
Date/Time
EDT
Temp
°C
App
Temp
°C
Dew
Point
°C
Rel
Hum
%
Delta-T
°C
Wind Press
QNH
hPa
Press
MSL
hPa
Rain since
9am
mm
Dir  Spd
km/h
Gust
km/h
Spd
kts
Gust
kts
19/11:30pm 7.9 2.3 1.3 63 3.0 WSW 20 30 11 16 1025.4 1024.1 32.2
19/11:00pm 8.2 2.3 1.4 62 3.1 SW 22 37 12 20 1026.0 1024.7 32.2
19/10:30pm 8.0 1.9 0.7 60 3.3 W 22 33 12 18 1026.3 1025.0 31.8
19/10:00pm 7.3 -0.7 0.5 62 3.0 NW 32 39 17 21 1026.3 1025.0 30.2
19/09:30pm 8.0 1.8 -0.5 55 3.8 W 22 33 12 18 1026.5 1025.2 29.0
19/09:00pm 7.5 0.2 -0.2 58 3.4 W 28 39 15 21 1026.2 1024.8 28.6
19/08:30pm 7.3 -0.7 0.7 63 3.0 WSW 32 44 17 24 1026.4 1025.1 26.8
19/08:14pm 6.6 -2.0 0.1 63 2.9 WNW 35 57 19 31 1026.5 1025.2 24.0
19/08:11pm 8.8 0.4 1.7 61 3.3 NW 35 52 19 28 1026.4 1025.1 22.6
19/08:00pm 9.5 -0.4 2.6 62 3.3 NNW 44 63 24 34 1024.5 1023.1 22.2
19/07:33pm 9.2 -1.5 2.8 64 3.1 NNW 48 67 26 36 1024.1 1022.7 21.6
19/07:30pm 9.4 -2.0 2.9 64 3.1 NNW 52 67 28 36 1023.9 1022.4 21.6
19/07:00pm 9.4 -0.8 3.4 66 2.9 NNW 46 59 25 32 1023.1 1021.7 21.2
19/06:30pm 9.8 -1.0 4.0 67 2.9 NNW 50 69 27 37 1022.9 1021.4 20.2
19/06:26pm 9.7 -1.1 3.9 67 2.9 NNW 50 69 27 37 1022.8 1021.3 20.2
19/06:00pm 9.6 -1.9 4.2 69 2.7 NNW 54 67 29 36 1023.0 1021.6 20.0
19/05:30pm 9.5 -1.3 4.1 69 2.7 NNW 50 70 27 38 1022.8 1021.3 19.2
19/05:17pm 9.6 -1.9 4.4 70 2.6 NNW 54 72 29 39 1023.1 1021.7 19.0
19/05:00pm 9.7 -3.1 4.7 71 2.5 NNW 61 74 33 40 1022.7 1021.2 18.4
19/04:54pm 9.5 -3.3 4.5 71 2.5 NNW 61 80 33 43 1022.4 1020.9 18.0
19/04:30pm 9.7 -3.4 4.9 72 2.4 NNW 63 82 34 44 1022.4 1020.9 17.0
19/04:25pm 9.6 -3.2 4.8 72 2.4 NNW 61 76 33 41 1022.5 1021.0 16.8
19/04:07pm 9.5 -0.5 4.5 71 2.5 NNW 46 65 25 35 1024.0 1022.6 16.0
19/04:00pm 9.5 -1.9 4.7 72 2.4 NNW 54 70 29 38 1024.2 1022.8 15.4
19/03:46pm 9.7 -0.9 5.1 73 2.3 NNW 50 72 27 39 1023.4 1021.9 12.4
19/03:33pm 9.6 0.3 5.2 74 2.2 NNW 43 61 23 33 1024.5 1023.1 10.4
19/03:30pm 9.5 0.1 5.3 75 2.1 NW 44 61 24 33 1024.5 1023.1 10.0
19/03:00pm 9.5 -1.4 5.5 76 2.0 NNW 52 70 28 38 1023.6 1022.2 7.6
19/02:31pm 9.4 -0.7 5.8 78 1.8 NNW 48 67 26 36 1024.3 1022.9 6.0
19/02:30pm 9.3 -1.2 5.7 78 1.8 NNW 50 67 27 36 1024.6 1023.2 6.0
19/02:00pm 9.2 -0.9 5.9 80 1.7 NNW 48 67 26 36 1025.0 1023.6 4.4
19/01:42pm 8.8 -0.3 5.7 81 1.6 NNW 43 65 23 35 1025.3 1024.0 4.2
19/01:30pm 8.8 0.1 5.9 82 1.5 NNW 41 54 22 29 1025.6 1024.2 4.0
19/01:05pm 8.7 -0.3 6.2 84 1.3 NNW 43 61 23 33 1025.6 1024.2 3.2
19/01:00pm 9.0 -0.2 6.4 84 1.3 NNW 44 61 24 33 1025.6 1024.2 3.0
19/12:35pm 8.9 -1.7 6.7 86 1.1 NNW 52 70 28 38 1025.2 1023.8 1.6
19/12:30pm 8.8 -1.9 6.6 86 1.1 NNW 52 67 28 36 1025.2 1023.8 1.6
19/12:00pm 8.7 -1.9 7.0 89 0.9 NNW 52 70 28 38 1025.6 1024.2 1.0
19/11:59am 8.5 -2.1 6.8 89 0.9 NNW 52 70 28 38 1025.6 1024.2 1.0
19/11:30am 8.4 -3.1 7.2 92 0.6 NNW 57 72 31 39 1025.8 1024.5 0.6
19/11:00am 8.4 -4.1 7.5 94 0.5 NNW 63 82 34 44 1025.0 1023.6 0.4
19/10:44am 8.3 -3.9 7.5 95 0.4 NNW 61 80 33 43 1024.7 1023.3 0.2
19/10:30am 8.0 -3.8 7.4 96 0.3 NNW 59 76 32 41 1025.4 1024.1 0.2
19/10:03am 7.9 -3.3 7.5 97 0.2 NNW 56 76 30 41 1025.3 1024.0 0.0
19/10:00am 7.5 -3.8 7.1 97 0.2 NW 56 70 30 38 1025.9 1024.6 0.0
19/09:30am 7.5 -3.1 7.1 97 0.2 NNW 52 74 28 40 1026.3 1025.0 0.0
19/09:24am 7.8 -2.3 7.4 97 0.2 NNW 50 74 27 40 1026.2 1024.8 0.0
19/09:00am 7.5 -1.4 6.8 95 0.4 NNW 43 56 23 30 1026.8 1025.5 0.0
19/08:39am 8.1 -1.0 6.7 91 0.7 NNW 44 63 24 34 1027.0 1025.7 0.0
19/08:30am 8.3 -2.0 6.4 88 1.0 NNW 50 67 27 36 1027.0 1025.7 0.0
19/08:29am 8.3 -2.0 6.4 88 1.0 NNW 50 67 27 36 1026.9 1025.6 0.0
19/08:01am 9.3 -4.3 6.4 82 1.5 NW 67 85 36 46 1025.7 1024.3 0.0
19/08:00am 9.4 -4.6 6.3 81 1.6 NW 69 85 37 46 1025.7 1024.3 0.0
19/07:30am 9.4 -6.0 5.9 79 1.8 NW 76 95 41 51 1024.5 1023.1 0.0
19/07:28am 9.6 -6.5 6.0 78 1.9 NW 80 98 43 53 1024.5 1023.1 0.0
19/07:25am 9.4 -7.3 5.9 79 1.8 NW 83 98 45 53 1024.2 1022.8 0.0
19/07:00am 9.3 -9.3 5.9 79 1.7 NW 93 106 50 57 1022.2 1020.7 0.0
19/06:34am 9.3 -9.0 5.5 77 1.9 NW 91 109 49 59 1021.4 1019.9 0.0
19/06:30am 9.3 -9.4 5.5 77 1.9 NW 93 106 50 57 1021.6 1020.0 0.0
19/06:00am 9.4 -7.7 5.6 77 1.9 NW 85 104 46 56 1021.8 1020.3 0.0
19/05:44am 9.9 -6.9 5.5 74 2.3 NW 83 102 45 55 1021.4 1019.9 0.0
19/05:30am 10.1 -6.7 5.5 73 2.4 NW 83 100 45 54 1021.6 1020.0 0.0
19/05:01am 9.7 -6.2 5.1 73 2.3 NW 78 96 42 52 1022.5 1021.0 0.0
19/05:00am 9.7 -6.3 4.9 72 2.4 NW 78 95 42 51 1022.5 1021.0 0.0
19/04:30am 9.8 -3.7 4.8 71 2.5 NNW 65 87 35 47 1024.0 1022.6 0.0
19/04:10am 9.7 -2.7 4.7 71 2.5 NNW 59 82 32 44 1024.8 1023.4 0.0
19/04:00am 9.7 -2.1 4.7 71 2.5 NNW 56 72 30 39 1025.1 1023.7 0.0
19/03:30am 9.9 -1.1 4.9 71 2.5 NW 52 70 28 38 1025.8 1024.5 0.0
19/03:01am 10.0 -2.0 4.6 69 2.7 NW 57 76 31 41 1025.6 1024.2 0.0
19/03:00am 10.0 -2.4 4.8 70 2.6 NW 59 76 32 41 1025.6 1024.2 0.0
19/02:30am 9.8 -3.0 4.8 71 2.5 NW 61 74 33 40 1025.8 1024.5 0.0
19/02:00am 10.0 -4.3 4.6 69 2.7 NW 69 80 37 43 1025.2 1023.8 0.0
19/01:30am 10.4 -4.5 4.5 67 3.0 NW 72 89 39 48 1025.2 1023.8 0.0
19/01:00am 10.4 -5.2 5.0 69 2.7 NW 76 89 41 48 1025.4 1024.1 0.0
19/12:30am 10.3 -5.9 5.5 72 2.5 NW 80 91 43 49 1025.1 1023.7 0.0
19/12:00am 10.5 -4.6 5.3 70 2.6 NW 74 87 40 47 1025.9 1024.6 0.0
 
Date/Time
EDT
Temp
°C
App
Temp
°C
Dew
Point
°C
Rel
Hum
%
Delta-T
°C
Wind Press
QNH
hPa
Press
MSL
hPa
Rain since
9am
mm
Dir  Spd
km/h
Gust
km/h
Spd
kts
Gust
kts
18/11:53pm 10.5 -4.3 5.1 69 2.8 NNW 72 82 39 44 1026.0 1024.7 0.0
18/11:36pm 10.4 -1.4 5.0 69 2.7 NNW 56 76 30 41 1026.9 1025.6 0.0
18/11:30pm 10.1 -0.2 4.7 69 2.7 NNW 48 65 26 35 1027.6 1026.4 0.0
18/11:00pm 9.6 0.5 4.2 69 2.7 NNW 41 54 22 29 1028.7 1027.5 0.0
18/10:30pm 10.2 -0.5 4.8 69 2.7 NW 50 59 27 32 1028.3 1027.1 0.0
18/10:00pm 10.2 0.9 5.0 70 2.6 NNW 43 48 23 26 1028.5 1027.2 0.0
18/09:30pm 10.6 2.0 4.7 67 3.0 NNW 39 44 21 24 1029.0 1027.8 0.0
18/09:00pm 9.7 1.9 2.6 61 3.4 NW 33 41 18 22 1029.3 1028.1 0.0
18/08:30pm 10.6 3.7 2.4 57 3.9 NW 28 35 15 19 1029.2 1028.0 0.0
18/08:00pm 11.6 4.7 2.6 54 4.4 NNW 28 33 15 18 1029.0 1027.8 0.0
18/07:30pm 11.1 5.2 1.9 53 4.4 NW 22 26 12 14 1029.0 1027.8 0.0
18/07:00pm 11.3 6.0 3.1 57 4.0 NW 20 22 11 12 1029.1 1027.9 0.0
18/06:30pm 13.2 9.0 3.8 53 4.7 WNW 15 19 8 10 1029.0 1027.8 0.0
18/06:00pm 14.8 10.6 3.6 47 5.7 WNW 15 19 8 10 1029.1 1027.9 0.0
18/05:30pm 15.9 12.9 4.3 46 6.0 W 9 15 5 8 1029.1 1027.9 0.0
18/05:00pm 16.4 13.3 3.5 42 6.6 W 9 15 5 8 1029.1 1027.9 0.0
18/04:30pm 17.3 14.4 1.3 34 7.9 SSE 6 9 3 5 1029.2 1028.0 0.0
18/04:00pm 16.1 12.9 2.9 41 6.6 SW 9 13 5 7 1029.6 1028.4 0.0
18/03:30pm 16.8 13.3 3.5 41 6.8 SW 11 22 6 12 1029.7 1028.5 0.0
18/03:00pm 17.6 13.3 -1.6 27 8.9 S 11 24 6 13 1029.8 1028.6 0.0
18/02:30pm 18.1 14.1 0.7 31 8.6 SSW 11 19 6 10 1030.3 1029.1 0.0

Latest Capital City Observations: Canberra | Sydney | Melbourne | Brisbane | Adelaide | Perth | Hobart | Darwin

Other Formats:

Comma delimited format used in spreadsheet applications
http://www.bom.gov.au/fwo/IDN60903/IDN60903.95909.axf

JavaScript Object Notation format (JSON) in row-major order
http://www.bom.gov.au/fwo/IDN60903/IDN60903.95909.json